sensor_id;sensor_type;location;lat;lon;timestamp;pressure;altitude;pressure_sealevel;temperature;humidity
33454;BME280;39400;49.744;7.012;2022-09-30T00:01:24;95108.94;;;5.62;100.00
33454;BME280;39400;49.744;7.012;2022-09-30T00:03:53;95120.63;;;5.66;100.00
33454;BME280;39400;49.744;7.012;2022-09-30T00:06:21;95126.00;;;5.48;100.00
33454;BME280;39400;49.744;7.012;2022-09-30T00:08:48;95129.75;;;5.26;100.00
33454;BME280;39400;49.744;7.012;2022-09-30T00:11:18;95126.38;;;5.47;100.00
33454;BME280;39400;49.744;7.012;2022-09-30T00:13:47;95119.81;;;5.55;100.00
33454;BME280;39400;49.744;7.012;2022-09-30T00:16:15;95124.47;;;5.51;100.00
33454;BME280;39400;49.744;7.012;2022-09-30T00:18:44;95124.44;;;5.44;100.00
33454;BME280;39400;49.744;7.012;2022-09-30T00:21:12;95119.72;;;5.41;100.00
33454;BME280;39400;49.744;7.012;2022-09-30T00:23:40;95127.19;;;4.92;100.00
33454;BME280;39400;49.744;7.012;2022-09-30T00:26:11;95131.19;;;5.09;100.00
33454;BME280;39400;49.744;7.012;2022-09-30T00:28:40;95132.53;;;4.82;100.00
33454;BME280;39400;49.744;7.012;2022-09-30T00:31:11;95128.09;;;5.11;100.00
33454;BME280;39400;49.744;7.012;2022-09-30T00:33:41;95128.56;;;5.20;100.00
33454;BME280;39400;49.744;7.012;2022-09-30T00:36:09;95123.28;;;4.93;100.00
33454;BME280;39400;49.744;7.012;2022-09-30T00:38:37;95121.88;;;5.10;100.00
33454;BME280;39400;49.744;7.012;2022-09-30T00:41:04;95131.31;;;5.23;100.00
33454;BME280;39400;49.744;7.012;2022-09-30T00:43:40;95129.38;;;5.28;100.00
33454;BME280;39400;49.744;7.012;2022-09-30T00:46:37;95135.16;;;5.19;100.00
33454;BME280;39400;49.744;7.012;2022-09-30T00:49:15;95132.00;;;5.13;100.00
33454;BME280;39400;49.744;7.012;2022-09-30T00:51:51;95134.16;;;4.90;100.00
33454;BME280;39400;49.744;7.012;2022-09-30T00:54:28;95141.09;;;4.84;100.00
33454;BME280;39400;49.744;7.012;2022-09-30T00:57:01;95144.34;;;5.00;100.00
33454;BME280;39400;49.744;7.012;2022-09-30T00:59:32;95146.81;;;5.19;100.00
33454;BME280;39400;49.744;7.012;2022-09-30T01:02:00;95148.06;;;4.77;100.00
33454;BME280;39400;49.744;7.012;2022-09-30T01:04:30;95147.31;;;4.81;100.00
33454;BME280;39400;49.744;7.012;2022-09-30T01:07:00;95152.09;;;4.94;100.00
33454;BME280;39400;49.744;7.012;2022-09-30T01:09:30;95155.19;;;4.93;100.00
33454;BME280;39400;49.744;7.012;2022-09-30T01:12:03;95153.00;;;5.09;100.00
33454;BME280;39400;49.744;7.012;2022-09-30T01:14:31;95151.41;;;5.08;100.00
33454;BME280;39400;49.744;7.012;2022-09-30T01:34:32;95156.41;;;4.99;100.00
33454;BME280;39400;49.744;7.012;2022-09-30T01:37:10;95158.19;;;4.81;100.00
33454;BME280;39400;49.744;7.012;2022-09-30T01:40:04;95160.47;;;4.71;100.00
33454;BME280;39400;49.744;7.012;2022-09-30T01:42:50;95153.16;;;4.83;100.00
33454;BME280;39400;49.744;7.012;2022-09-30T01:45:34;95155.91;;;4.86;100.00
33454;BME280;39400;49.744;7.012;2022-09-30T01:48:24;95149.16;;;4.69;100.00
33454;BME280;39400;49.744;7.012;2022-09-30T01:51:02;95151.19;;;4.80;100.00
33454;BME280;39400;49.744;7.012;2022-09-30T01:53:46;95151.19;;;4.80;100.00
33454;BME280;39400;49.744;7.012;2022-09-30T01:56:36;95157.44;;;4.84;100.00
33454;BME280;39400;49.744;7.012;2022-09-30T01:59:24;95161.06;;;4.54;100.00
33454;BME280;39400;49.744;7.012;2022-09-30T02:02:09;95165.53;;;4.73;100.00
33454;BME280;39400;49.744;7.012;2022-09-30T02:04:47;95168.28;;;4.76;100.00
33454;BME280;39400;49.744;7.012;2022-09-30T02:07:23;95164.31;;;4.70;100.00
33454;BME280;39400;49.744;7.012;2022-09-30T02:10:02;95160.28;;;4.53;100.00
33454;BME280;39400;49.744;7.012;2022-09-30T02:12:34;95165.09;;;4.30;100.00
33454;BME280;39400;49.744;7.012;2022-09-30T02:15:08;95163.66;;;4.06;100.00
33454;BME280;39400;49.744;7.012;2022-09-30T02:17:41;95167.91;;;4.37;100.00
33454;BME280;39400;49.744;7.012;2022-09-30T02:20:15;95164.94;;;4.53;100.00
33454;BME280;39400;49.744;7.012;2022-09-30T02:22:57;95162.28;;;4.60;100.00
33454;BME280;39400;49.744;7.012;2022-09-30T02:25:31;95164.94;;;4.53;100.00
33454;BME280;39400;49.744;7.012;2022-09-30T02:28:02;95161.19;;;4.65;100.00
33454;BME280;39400;49.744;7.012;2022-09-30T02:30:38;95159.56;;;4.60;100.00
33454;BME280;39400;49.744;7.012;2022-09-30T02:33:11;95156.28;;;4.40;100.00
33454;BME280;39400;49.744;7.012;2022-09-30T02:35:47;95156.09;;;4.26;100.00
33454;BME280;39400;49.744;7.012;2022-09-30T02:38:21;95164.06;;;4.42;100.00
33454;BME280;39400;49.744;7.012;2022-09-30T02:41:08;95164.16;;;4.52;100.00
33454;BME280;39400;49.744;7.012;2022-09-30T02:43:37;95163.97;;;4.35;100.00
33454;BME280;39400;49.744;7.012;2022-09-30T02:48:48;95171.22;;;4.20;100.00
33454;BME280;39400;49.744;7.012;2022-09-30T02:54:18;95168.25;;;4.36;100.00
33454;BME280;39400;49.744;7.012;2022-09-30T02:57:14;95166.31;;;4.36;100.00
33454;BME280;39400;49.744;7.012;2022-09-30T02:59:46;95161.75;;;4.44;100.00
33454;BME280;39400;49.744;7.012;2022-09-30T03:02:14;95168.75;;;4.45;100.00
33454;BME280;39400;49.744;7.012;2022-09-30T03:04:43;95168.00;;;4.48;100.00
33454;BME280;39400;49.744;7.012;2022-09-30T03:07:12;95169.91;;;4.44;100.00
33454;BME280;39400;49.744;7.012;2022-09-30T03:09:39;95172.66;;;4.10;100.00
33454;BME280;39400;49.744;7.012;2022-09-30T03:12:22;95177.09;;;4.25;100.00
33454;BME280;39400;49.744;7.012;2022-09-30T03:20:29;95183.75;;;4.32;100.00
33454;BME280;39400;49.744;7.012;2022-09-30T03:26:07;95192.09;;;4.46;100.00
33454;BME280;39400;49.744;7.012;2022-09-30T03:34:18;95195.16;;;4.41;100.00
33454;BME280;39400;49.744;7.012;2022-09-30T03:37:24;95193.50;;;4.33;100.00
33454;BME280;39400;49.744;7.012;2022-09-30T03:39:54;95191.66;;;4.40;100.00
33454;BME280;39400;49.744;7.012;2022-09-30T03:42:29;95196.13;;;4.25;100.00
33454;BME280;39400;49.744;7.012;2022-09-30T03:45:10;95196.88;;;4.22;100.00
33454;BME280;39400;49.744;7.012;2022-09-30T03:47:45;95211.06;;;4.39;100.00
33454;BME280;39400;49.744;7.012;2022-09-30T03:50:16;95205.13;;;4.29;100.00
33454;BME280;39400;49.744;7.012;2022-09-30T03:52:46;95211.28;;;4.23;100.00
33454;BME280;39400;49.744;7.012;2022-09-30T03:55:14;95205.00;;;4.19;100.00
33454;BME280;39400;49.744;7.012;2022-09-30T03:57:42;95205.84;;;4.23;100.00
33454;BME280;39400;49.744;7.012;2022-09-30T04:00:11;95205.88;;;4.26;100.00
33454;BME280;39400;49.744;7.012;2022-09-30T04:02:39;95212.91;;;4.31;100.00
33454;BME280;39400;49.744;7.012;2022-09-30T04:05:07;95215.75;;;4.08;100.00
33454;BME280;39400;49.744;7.012;2022-09-30T04:07:34;95224.25;;;4.03;100.00
33454;BME280;39400;49.744;7.012;2022-09-30T04:10:03;95215.09;;;4.18;100.00
33454;BME280;39400;49.744;7.012;2022-09-30T04:12:30;95220.38;;;4.04;100.00
33454;BME280;39400;49.744;7.012;2022-09-30T04:14:57;95217.34;;;4.09;100.00
33454;BME280;39400;49.744;7.012;2022-09-30T04:17:24;95214.91;;;4.04;100.00
33454;BME280;39400;49.744;7.012;2022-09-30T04:19:51;95212.72;;;4.13;100.00
33454;BME280;39400;49.744;7.012;2022-09-30T04:22:18;95215.19;;;4.25;100.00
33454;BME280;39400;49.744;7.012;2022-09-30T04:24:51;95219.34;;;4.16;100.00
33454;BME280;39400;49.744;7.012;2022-09-30T04:27:18;95212.53;;;3.99;100.00
33454;BME280;39400;49.744;7.012;2022-09-30T04:29:45;95220.50;;;4.15;100.00
33454;BME280;39400;49.744;7.012;2022-09-30T04:32:12;95221.28;;;4.15;100.00
33454;BME280;39400;49.744;7.012;2022-09-30T04:34:39;95224.00;;;4.15;100.00
33454;BME280;39400;49.744;7.012;2022-09-30T04:37:06;95222.69;;;4.02;100.00
33454;BME280;39400;49.744;7.012;2022-09-30T04:39:37;95238.00;;;3.87;100.00
33454;BME280;39400;49.744;7.012;2022-09-30T04:42:04;95245.53;;;3.97;100.00
33454;BME280;39400;49.744;7.012;2022-09-30T04:44:32;95247.28;;;3.83;100.00
33454;BME280;39400;49.744;7.012;2022-09-30T04:46:59;95250.59;;;3.46;100.00
33454;BME280;39400;49.744;7.012;2022-09-30T04:49:26;95248.53;;;3.62;100.00
33454;BME280;39400;49.744;7.012;2022-09-30T04:51:53;95249.47;;;3.73;100.00
33454;BME280;39400;49.744;7.012;2022-09-30T04:54:21;95253.00;;;3.77;100.00
33454;BME280;39400;49.744;7.012;2022-09-30T04:56:48;95266.22;;;3.75;100.00
33454;BME280;39400;49.744;7.012;2022-09-30T04:59:15;95267.88;;;3.84;100.00
33454;BME280;39400;49.744;7.012;2022-09-30T05:01:42;95276.84;;;3.88;100.00
33454;BME280;39400;49.744;7.012;2022-09-30T05:04:10;95281.31;;;3.73;100.00
33454;BME280;39400;49.744;7.012;2022-09-30T05:06:38;95287.53;;;3.73;100.00
33454;BME280;39400;49.744;7.012;2022-09-30T05:09:08;95288.34;;;3.77;100.00
33454;BME280;39400;49.744;7.012;2022-09-30T05:11:35;95284.66;;;3.89;100.00
33454;BME280;39400;49.744;7.012;2022-09-30T05:14:08;95290.88;;;3.90;100.00
33454;BME280;39400;49.744;7.012;2022-09-30T05:16:35;95279.31;;;3.96;100.00
33454;BME280;39400;49.744;7.012;2022-09-30T05:19:03;95282.28;;;3.88;100.00
33454;BME280;39400;49.744;7.012;2022-09-30T05:21:30;95293.94;;;3.85;100.00
33454;BME280;39400;49.744;7.012;2022-09-30T05:23:57;95293.59;;;3.90;100.00
33454;BME280;39400;49.744;7.012;2022-09-30T05:26:24;95293.16;;;3.88;100.00
33454;BME280;39400;49.744;7.012;2022-09-30T05:28:51;95299.91;;;3.97;100.00
33454;BME280;39400;49.744;7.012;2022-09-30T05:31:19;95304.56;;;3.70;100.00
33454;BME280;39400;49.744;7.012;2022-09-30T05:33:48;95304.63;;;3.74;100.00
33454;BME280;39400;49.744;7.012;2022-09-30T05:36:20;95299.88;;;3.94;100.00
33454;BME280;39400;49.744;7.012;2022-09-30T05:38:50;95311.38;;;4.10;100.00
33454;BME280;39400;49.744;7.012;2022-09-30T05:41:18;95303.66;;;4.12;100.00
33454;BME280;39400;49.744;7.012;2022-09-30T05:43:48;95306.56;;;4.00;100.00
33454;BME280;39400;49.744;7.012;2022-09-30T05:46:17;95299.28;;;4.08;100.00
33454;BME280;39400;49.744;7.012;2022-09-30T05:48:45;95314.41;;;4.05;100.00
33454;BME280;39400;49.744;7.012;2022-09-30T05:51:12;95312.31;;;3.68;100.00
33454;BME280;39400;49.744;7.012;2022-09-30T05:53:40;95315.56;;;3.77;100.00
33454;BME280;39400;49.744;7.012;2022-09-30T05:56:09;95319.78;;;4.01;100.00
33454;BME280;39400;49.744;7.012;2022-09-30T05:58:36;95321.53;;;4.13;100.00
33454;BME280;39400;49.744;7.012;2022-09-30T06:01:06;95330.25;;;4.26;100.00
33454;BME280;39400;49.744;7.012;2022-09-30T06:03:41;95327.25;;;4.35;100.00
33454;BME280;39400;49.744;7.012;2022-09-30T06:06:09;95337.50;;;4.45;100.00
33454;BME280;39400;49.744;7.012;2022-09-30T06:08:36;95333.28;;;4.21;100.00
33454;BME280;39400;49.744;7.012;2022-09-30T06:11:08;95344.75;;;4.07;100.00
33454;BME280;39400;49.744;7.012;2022-09-30T06:13:39;95357.28;;;4.15;100.00
33454;BME280;39400;49.744;7.012;2022-09-30T06:16:08;95355.09;;;4.24;100.00
33454;BME280;39400;49.744;7.012;2022-09-30T06:18:36;95353.50;;;4.20;100.00
33454;BME280;39400;49.744;7.012;2022-09-30T06:21:09;95356.66;;;4.25;100.00
33454;BME280;39400;49.744;7.012;2022-09-30T06:23:37;95358.41;;;4.37;100.00
33454;BME280;39400;49.744;7.012;2022-09-30T06:26:05;95370.69;;;4.27;100.00
33454;BME280;39400;49.744;7.012;2022-09-30T06:28:34;95374.00;;;4.40;100.00
33454;BME280;39400;49.744;7.012;2022-09-30T06:31:02;95371.31;;;4.44;100.00
33454;BME280;39400;49.744;7.012;2022-09-30T06:33:30;95378.00;;;4.50;100.00
33454;BME280;39400;49.744;7.012;2022-09-30T06:35:58;95392.78;;;4.49;100.00
33454;BME280;39400;49.744;7.012;2022-09-30T06:38:25;95396.28;;;4.80;100.00
33454;BME280;39400;49.744;7.012;2022-09-30T06:40:54;95395.72;;;4.97;100.00
33454;BME280;39400;49.744;7.012;2022-09-30T06:43:22;95398.03;;;4.95;100.00
33454;BME280;39400;49.744;7.012;2022-09-30T06:45:49;95399.34;;;5.08;100.00
33454;BME280;39400;49.744;7.012;2022-09-30T06:48:18;95383.31;;;4.99;100.00
33454;BME280;39400;49.744;7.012;2022-09-30T06:51:01;95391.72;;;5.21;100.00
33454;BME280;39400;49.744;7.012;2022-09-30T06:53:28;95385.06;;;5.18;100.00
33454;BME280;39400;49.744;7.012;2022-09-30T06:55:56;95382.78;;;5.20;100.00
33454;BME280;39400;49.744;7.012;2022-09-30T06:58:24;95373.94;;;5.31;100.00
33454;BME280;39400;49.744;7.012;2022-09-30T07:01:02;95386.13;;;5.44;100.00
33454;BME280;39400;49.744;7.012;2022-09-30T07:03:32;95395.81;;;5.38;100.00
33454;BME280;39400;49.744;7.012;2022-09-30T07:06:02;95399.41;;;5.49;100.00
33454;BME280;39400;49.744;7.012;2022-09-30T07:08:32;95391.41;;;5.67;100.00
33454;BME280;39400;49.744;7.012;2022-09-30T07:11:00;95404.34;;;5.73;100.00
33454;BME280;39400;49.744;7.012;2022-09-30T07:13:28;95408.78;;;5.14;100.00
33454;BME280;39400;49.744;7.012;2022-09-30T07:15:55;95423.75;;;4.67;100.00
33454;BME280;39400;49.744;7.012;2022-09-30T07:18:23;95411.47;;;5.11;100.00
33454;BME280;39400;49.744;7.012;2022-09-30T07:20:51;95414.53;;;5.43;100.00
33454;BME280;39400;49.744;7.012;2022-09-30T07:23:19;95413.63;;;5.65;100.00
33454;BME280;39400;49.744;7.012;2022-09-30T07:25:54;95409.78;;;5.73;100.00
33454;BME280;39400;49.744;7.012;2022-09-30T07:28:26;95420.69;;;5.73;100.00
33454;BME280;39400;49.744;7.012;2022-09-30T07:30:58;95424.66;;;5.80;100.00
33454;BME280;39400;49.744;7.012;2022-09-30T07:33:47;95409.84;;;5.81;100.00
33454;BME280;39400;49.744;7.012;2022-09-30T07:36:14;95415.53;;;6.02;100.00
33454;BME280;39400;49.744;7.012;2022-09-30T07:38:44;95418.72;;;6.11;100.00
33454;BME280;39400;49.744;7.012;2022-09-30T07:41:14;95423.91;;;6.24;100.00
33454;BME280;39400;49.744;7.012;2022-09-30T07:43:43;95422.78;;;6.32;100.00
33454;BME280;39400;49.744;7.012;2022-09-30T07:46:17;95425.97;;;6.41;100.00
33454;BME280;39400;49.744;7.012;2022-09-30T07:48:47;95428.00;;;6.51;100.00
33454;BME280;39400;49.744;7.012;2022-09-30T07:51:22;95423.75;;;6.61;100.00
33454;BME280;39400;49.744;7.012;2022-09-30T07:53:53;95433.19;;;6.71;100.00
33454;BME280;39400;49.744;7.012;2022-09-30T07:56:22;95428.22;;;6.87;100.00
33454;BME280;39400;49.744;7.012;2022-09-30T07:58:54;95432.94;;;6.94;100.00
33454;BME280;39400;49.744;7.012;2022-09-30T08:01:22;95427.09;;;6.99;100.00
33454;BME280;39400;49.744;7.012;2022-09-30T08:03:55;95439.63;;;7.03;100.00
33454;BME280;39400;49.744;7.012;2022-09-30T08:06:23;95442.72;;;7.02;100.00
33454;BME280;39400;49.744;7.012;2022-09-30T08:08:53;95440.44;;;7.07;100.00
33454;BME280;39400;49.744;7.012;2022-09-30T08:11:21;95438.09;;;7.17;100.00
33454;BME280;39400;49.744;7.012;2022-09-30T08:13:52;95445.91;;;7.14;100.00
33454;BME280;39400;49.744;7.012;2022-09-30T08:16:21;95450.66;;;7.25;100.00
33454;BME280;39400;49.744;7.012;2022-09-30T08:18:56;95458.50;;;7.37;100.00
33454;BME280;39400;49.744;7.012;2022-09-30T08:21:24;95455.78;;;7.44;100.00
33454;BME280;39400;49.744;7.012;2022-09-30T08:23:51;95464.13;;;7.73;100.00
33454;BME280;39400;49.744;7.012;2022-09-30T08:26:19;95463.75;;;7.92;100.00
33454;BME280;39400;49.744;7.012;2022-09-30T08:28:46;95452.44;;;8.08;100.00
33454;BME280;39400;49.744;7.012;2022-09-30T08:31:19;95454.78;;;8.09;100.00
33454;BME280;39400;49.744;7.012;2022-09-30T08:33:46;95454.00;;;8.05;100.00
33454;BME280;39400;49.744;7.012;2022-09-30T08:36:21;95450.84;;;8.07;100.00
33454;BME280;39400;49.744;7.012;2022-09-30T08:38:49;95453.22;;;8.33;100.00
33454;BME280;39400;49.744;7.012;2022-09-30T08:44:25;95464.22;;;8.73;100.00
33454;BME280;39400;49.744;7.012;2022-09-30T08:47:10;95470.47;;;8.77;100.00
33454;BME280;39400;49.744;7.012;2022-09-30T08:52:42;95471.63;;;8.94;100.00
33454;BME280;39400;49.744;7.012;2022-09-30T08:55:20;95473.56;;;8.90;100.00
33454;BME280;39400;49.744;7.012;2022-09-30T08:57:49;95475.13;;;9.05;100.00
33454;BME280;39400;49.744;7.012;2022-09-30T09:00:18;95463.38;;;9.08;100.00
33454;BME280;39400;49.744;7.012;2022-09-30T09:02:55;95471.16;;;9.24;100.00
33454;BME280;39400;49.744;7.012;2022-09-30T09:05:49;95475.06;;;9.26;100.00
33454;BME280;39400;49.744;7.012;2022-09-30T09:11:22;95477.75;;;9.44;100.00
33454;BME280;39400;49.744;7.012;2022-09-30T09:14:29;95474.25;;;9.33;100.00
33454;BME280;39400;49.744;7.012;2022-09-30T09:22:34;95474.97;;;9.51;100.00
33454;BME280;39400;49.744;7.012;2022-09-30T09:25:03;95469.88;;;9.53;100.00
33454;BME280;39400;49.744;7.012;2022-09-30T09:27:44;95470.22;;;9.70;100.00
33454;BME280;39400;49.744;7.012;2022-09-30T09:30:15;95470.16;;;9.77;100.00
33454;BME280;39400;49.744;7.012;2022-09-30T09:32:49;95476.28;;;10.03;100.00
33454;BME280;39400;49.744;7.012;2022-09-30T09:38:23;95487.38;;;9.88;100.00
33454;BME280;39400;49.744;7.012;2022-09-30T09:41:23;95477.22;;;9.78;100.00
33454;BME280;39400;49.744;7.012;2022-09-30T09:44:05;95474.88;;;9.69;100.00
33454;BME280;39400;49.744;7.012;2022-09-30T09:47:00;95481.75;;;10.10;100.00
33454;BME280;39400;49.744;7.012;2022-09-30T09:49:35;95473.03;;;10.26;100.00
33454;BME280;39400;49.744;7.012;2022-09-30T09:54:45;95473.47;;;10.17;100.00
33454;BME280;39400;49.744;7.012;2022-09-30T09:57:18;95478.59;;;10.11;100.00
33454;BME280;39400;49.744;7.012;2022-09-30T09:59:56;95471.38;;;10.35;100.00
33454;BME280;39400;49.744;7.012;2022-09-30T10:02:30;95471.44;;;10.28;100.00
33454;BME280;39400;49.744;7.012;2022-09-30T10:04:57;95473.94;;;10.64;100.00
33454;BME280;39400;49.744;7.012;2022-09-30T10:07:31;95480.53;;;10.70;100.00
33454;BME280;39400;49.744;7.012;2022-09-30T10:12:40;95477.25;;;10.89;100.00
33454;BME280;39400;49.744;7.012;2022-09-30T10:15:21;95478.66;;;11.05;100.00
33454;BME280;39400;49.744;7.012;2022-09-30T10:17:51;95471.88;;;10.75;100.00
33454;BME280;39400;49.744;7.012;2022-09-30T10:20:30;95475.72;;;10.85;100.00
33454;BME280;39400;49.744;7.012;2022-09-30T10:23:07;95488.25;;;10.89;100.00
33454;BME280;39400;49.744;7.012;2022-09-30T10:25:35;95489.78;;;10.90;100.00
33454;BME280;39400;49.744;7.012;2022-09-30T10:28:19;95483.31;;;10.66;100.00
33454;BME280;39400;49.744;7.012;2022-09-30T10:31:27;95487.81;;;10.46;100.00
33454;BME280;39400;49.744;7.012;2022-09-30T10:33:58;95473.63;;;10.51;100.00
33454;BME280;39400;49.744;7.012;2022-09-30T10:36:31;95487.81;;;10.46;100.00
33454;BME280;39400;49.744;7.012;2022-09-30T10:39:22;95487.94;;;10.21;100.00
33454;BME280;39400;49.744;7.012;2022-09-30T10:42:10;95473.78;;;10.33;100.00
33454;BME280;39400;49.744;7.012;2022-09-30T10:44:44;95478.28;;;10.58;100.00
33454;BME280;39400;49.744;7.012;2022-09-30T10:47:16;95483.09;;;10.46;100.00
33454;BME280;39400;49.744;7.012;2022-09-30T10:49:48;95483.50;;;10.45;100.00
33454;BME280;39400;49.744;7.012;2022-09-30T10:52:21;95482.25;;;10.57;100.00
33454;BME280;39400;49.744;7.012;2022-09-30T10:54:57;95488.38;;;10.75;100.00
33454;BME280;39400;49.744;7.012;2022-09-30T10:57:32;95486.88;;;10.67;100.00
33454;BME280;39400;49.744;7.012;2022-09-30T11:02:58;95488.59;;;11.33;100.00
33454;BME280;39400;49.744;7.012;2022-09-30T11:05:44;95487.66;;;11.47;100.00
33454;BME280;39400;49.744;7.012;2022-09-30T11:11:03;95499.41;;;11.51;100.00
33454;BME280;39400;49.744;7.012;2022-09-30T11:13:49;95505.41;;;11.42;100.00
33454;BME280;39400;49.744;7.012;2022-09-30T11:19:36;95504.63;;;11.41;100.00
33454;BME280;39400;49.744;7.012;2022-09-30T11:22:18;95505.91;;;11.33;100.00
33454;BME280;39400;49.744;7.012;2022-09-30T11:24:51;95507.56;;;11.24;100.00
33454;BME280;39400;49.744;7.012;2022-09-30T11:38:01;95494.88;;;11.33;100.00
33454;BME280;39400;49.744;7.012;2022-09-30T11:44:00;95490.38;;;11.84;99.82
33454;BME280;39400;49.744;7.012;2022-09-30T11:46:47;95496.03;;;11.70;100.00
33454;BME280;39400;49.744;7.012;2022-09-30T11:57:36;95489.03;;;12.54;95.42
33454;BME280;39400;49.744;7.012;2022-09-30T12:00:15;95491.44;;;12.75;94.13
33454;BME280;39400;49.744;7.012;2022-09-30T12:02:46;95496.00;;;12.85;94.51
33454;BME280;39400;49.744;7.012;2022-09-30T12:08:05;95494.19;;;12.99;93.79
33454;BME280;39400;49.744;7.012;2022-09-30T12:10:40;95499.94;;;12.84;93.14
33454;BME280;39400;49.744;7.012;2022-09-30T12:13:16;95510.13;;;12.88;92.10
33454;BME280;39400;49.744;7.012;2022-09-30T12:15:46;95510.44;;;12.93;94.42
33454;BME280;39400;49.744;7.012;2022-09-30T12:18:27;95518.19;;;12.24;92.74
33454;BME280;39400;49.744;7.012;2022-09-30T12:21:03;95521.06;;;12.44;94.27
33454;BME280;39400;49.744;7.012;2022-09-30T12:23:43;95520.47;;;12.29;96.20
33454;BME280;39400;49.744;7.012;2022-09-30T12:26:13;95522.94;;;12.24;96.43
33454;BME280;39400;49.744;7.012;2022-09-30T12:28:59;95525.63;;;12.27;96.06
33454;BME280;39400;49.744;7.012;2022-09-30T12:40:36;95518.59;;;11.96;97.76
33454;BME280;39400;49.744;7.012;2022-09-30T12:46:24;95512.34;;;11.88;100.00
33454;BME280;39400;49.744;7.012;2022-09-30T12:49:01;95511.81;;;11.66;100.00
33454;BME280;39400;49.744;7.012;2022-09-30T12:51:34;95517.03;;;11.57;100.00
33454;BME280;39400;49.744;7.012;2022-09-30T12:54:20;95507.94;;;11.60;100.00
33454;BME280;39400;49.744;7.012;2022-09-30T12:56:54;95510.63;;;11.67;100.00
33454;BME280;39400;49.744;7.012;2022-09-30T12:59:25;95509.13;;;11.97;100.00
33454;BME280;39400;49.744;7.012;2022-09-30T13:01:55;95509.75;;;12.08;100.00
33454;BME280;39400;49.744;7.012;2022-09-30T13:04:37;95509.44;;;12.02;98.28
33454;BME280;39400;49.744;7.012;2022-09-30T13:07:11;95513.41;;;11.98;97.56
33454;BME280;39400;49.744;7.012;2022-09-30T13:09:58;95506.75;;;11.99;97.77
33454;BME280;39400;49.744;7.012;2022-09-30T13:12:41;95502.28;;;12.35;98.82
33454;BME280;39400;49.744;7.012;2022-09-30T13:23:45;95500.44;;;13.03;90.50
33454;BME280;39400;49.744;7.012;2022-09-30T13:29:36;95506.00;;;13.66;84.97
33454;BME280;39400;49.744;7.012;2022-09-30T13:34:47;95502.41;;;13.69;84.53
33454;BME280;39400;49.744;7.012;2022-09-30T13:37:34;95510.19;;;13.74;83.46
33454;BME280;39400;49.744;7.012;2022-09-30T13:40:03;95505.63;;;13.64;82.71
33454;BME280;39400;49.744;7.012;2022-09-30T13:42:39;95502.88;;;13.44;84.20
33454;BME280;39400;49.744;7.012;2022-09-30T13:45:15;95490.22;;;13.87;83.48
33454;BME280;39400;49.744;7.012;2022-09-30T13:48:08;95497.97;;;13.92;81.02
33454;BME280;39400;49.744;7.012;2022-09-30T13:50:51;95495.66;;;20.22;64.49
33454;BME280;39400;49.744;7.012;2022-09-30T13:53:27;95493.59;;;23.63;45.14
33454;BME280;39400;49.744;7.012;2022-09-30T13:55:58;95501.53;;;25.21;39.06
33454;BME280;39400;49.744;7.012;2022-09-30T14:10:28;95470.25;;;26.27;32.83
33454;BME280;39400;49.744;7.012;2022-09-30T14:13:05;95469.28;;;27.14;31.45
33454;BME280;39400;49.744;7.012;2022-09-30T14:15:51;95471.94;;;25.85;31.90
33454;BME280;39400;49.744;7.012;2022-09-30T14:21:29;95472.03;;;29.44;28.97
33454;BME280;39400;49.744;7.012;2022-09-30T14:24:20;95472.44;;;32.72;26.27
33454;BME280;39400;49.744;7.012;2022-09-30T14:27:22;95472.22;;;29.76;26.56
33454;BME280;39400;49.744;7.012;2022-09-30T14:30:10;95467.66;;;30.29;25.47
33454;BME280;39400;49.744;7.012;2022-09-30T14:32:58;95473.31;;;27.47;28.46
33454;BME280;39400;49.744;7.012;2022-09-30T14:35:29;95467.06;;;29.74;26.50
33454;BME280;39400;49.744;7.012;2022-09-30T14:38:04;95466.16;;;28.81;27.71
33454;BME280;39400;49.744;7.012;2022-09-30T14:40:35;95469.44;;;29.21;29.32
33454;BME280;39400;49.744;7.012;2022-09-30T14:43:13;95456.69;;;30.39;27.42
33454;BME280;39400;49.744;7.012;2022-09-30T14:45:44;95462.50;;;24.65;34.54
33454;BME280;39400;49.744;7.012;2022-09-30T14:48:25;95474.38;;;21.33;39.96
33454;BME280;39400;49.744;7.012;2022-09-30T14:51:08;95469.25;;;29.38;29.39
33454;BME280;39400;49.744;7.012;2022-09-30T14:53:39;95462.75;;;21.11;40.97
33454;BME280;39400;49.744;7.012;2022-09-30T14:56:30;95473.72;;;18.20;47.51
33454;BME280;39400;49.744;7.012;2022-09-30T14:58:59;95465.06;;;18.18;50.80
33454;BME280;39400;49.744;7.012;2022-09-30T15:01:39;95466.44;;;26.97;33.11
33454;BME280;39400;49.744;7.012;2022-09-30T15:04:23;95453.63;;;21.34;41.83
33454;BME280;39400;49.744;7.012;2022-09-30T15:06:52;95464.94;;;22.83;41.94
33454;BME280;39400;49.744;7.012;2022-09-30T15:09:23;95455.78;;;28.18;32.28
33454;BME280;39400;49.744;7.012;2022-09-30T15:11:51;95452.63;;;20.47;42.26
33454;BME280;39400;49.744;7.012;2022-09-30T15:14:21;95449.78;;;19.22;46.88
33454;BME280;39400;49.744;7.012;2022-09-30T15:16:51;95454.09;;;21.72;43.98
33454;BME280;39400;49.744;7.012;2022-09-30T15:19:24;95449.34;;;21.15;42.24
33454;BME280;39400;49.744;7.012;2022-09-30T15:21:53;95453.88;;;19.76;46.45
33454;BME280;39400;49.744;7.012;2022-09-30T15:24:23;95452.31;;;29.08;31.82
33454;BME280;39400;49.744;7.012;2022-09-30T15:26:51;95447.38;;;32.36;27.61
33454;BME280;39400;49.744;7.012;2022-09-30T15:29:21;95453.28;;;32.93;26.42
33454;BME280;39400;49.744;7.012;2022-09-30T15:32:02;95459.25;;;26.40;31.67
33454;BME280;39400;49.744;7.012;2022-09-30T15:34:30;95452.66;;;28.27;29.64
33454;BME280;39400;49.744;7.012;2022-09-30T15:37:00;95447.53;;;28.91;29.00
33454;BME280;39400;49.744;7.012;2022-09-30T15:39:39;95454.09;;;28.04;29.13
33454;BME280;39400;49.744;7.012;2022-09-30T15:42:57;95454.91;;;26.56;29.97
33454;BME280;39400;49.744;7.012;2022-09-30T15:45:34;95448.25;;;25.54;32.37
33454;BME280;39400;49.744;7.012;2022-09-30T15:48:25;95450.78;;;27.19;29.62
33454;BME280;39400;49.744;7.012;2022-09-30T15:50:57;95449.00;;;27.91;29.45